Terminal Aerodrome Forecast
Issued by NWS

Home | Current Version | Previous Version | Text Only | Print | Product List | Glossary Off
Versions: 1 2 3 4 5 6 7 8 9 10 11 12 13 14 15 16 17 18 19 20 21 22 23 24 25 26 27 28 29 30 31 32 33 34 35 36 37 38

000
FTUS43 KLOT 021347 AAA
TAFORD
TAF AMD
KORD 021347Z 0214/0318 05011KT P6SM BKN012
     FM021600 05012KT P6SM SCT020 SCT250
     FM030100 04008KT P6SM FEW040 SCT250
     FM031400 07008KT P6SM FEW250=

USA.gov is the U.S. government's official web portal to all federal, state and local government web resources and services.